Alam Padu — 9MGK6 — position and weather

sailwx.info

Track history (hours):
 
Tides and Currents Weather Stations Pressure Air Temp Water Temp Dewpoint Dewpoint Depression Visibility Wind Speed Wind Dir Waves Ship Positions

Alam Padu

Last reported at 2015-Nov-08 02:33 UTC. Time now 2016-Feb-07 21:56 UTC.
Position N 22°33' E 120°19'.
Warning: this ship's position is months out of date.

Length 229 m; draft 14.5 m.

Type: Cargo ship. MMSI: 533924000.

Date/timePositionNaut miles runAvg speedWind from/ knotsBaromVisibWave heightAir tempDewpointWater temp
2015-Nov-08 02:33N 22°33' E 120°19'7 7.2
2015-Nov-08 01:33N 22°31' E 120°12'6 5.9
2015-Nov-08 00:33N 22°28' E 120°06'1110.7
2015-Nov-07 23:33N 22°20' E 119°59'1310.8
2015-Nov-07 22:22N 22°09' E 119°51'910.9
2015-Nov-07 21:33N 22°02' E 119°46'  
2015-Nov-01 15:29N 01°18' E 104°05'0 0.0
2015-Nov-01 09:17N 01°18' E 104°05'0 0.1
2015-Nov-01 07:29N 01°18' E 104°05'0 0.2
2015-Nov-01 06:10N 01°18' E 104°05'2 2.3
2015-Nov-01 05:23N 01°17' E 104°05'6 7.4
2015-Nov-01 04:32N 01°15' E 103°59'7 6.4
2015-Nov-01 03:29N 01°12' E 103°53'5 5.4
2015-Nov-01 02:33N 01°10' E 103°48'16411.0
2015-Oct-31 11:34N 02°33' E 101°27'1312.0
2015-Oct-31 10:28N 02°39' E 101°15'1011.3
2015-Oct-31 09:33N 02°44' E 101°06'1210.9
2015-Oct-31 08:28N 02°51' E 100°56'1010.9
2015-Oct-31 07:34N 02°58' E 100°49'  
Track history (hours):
 
Tides and Currents Weather Stations Pressure Air Temp Water Temp Dewpoint Dewpoint Depression Visibility Wind Speed Wind Dir Waves Ship Positions

Alam Padu

Last reported at 2015-Nov-08 02:33 UTC. Time now 2016-Feb-07 21:56 UTC.
Position N 22°33' E 120°19'.
Warning: this ship's position is months out of date.

Length 229 m; draft 14.5 m.

Type: Cargo ship. MMSI: 533924000.

Date/timePositionNaut miles runAvg speedWind from/ knotsBaromVisibWave heightAir tempDewpointWater temp
2015-Nov-08 02:33N 22°33' E 120°19'7 7.2
2015-Nov-08 01:33N 22°31' E 120°12'6 5.9
2015-Nov-08 00:33N 22°28' E 120°06'1110.7
2015-Nov-07 23:33N 22°20' E 119°59'1310.8
2015-Nov-07 22:22N 22°09' E 119°51'910.9
2015-Nov-07 21:33N 22°02' E 119°46'  
2015-Nov-01 15:29N 01°18' E 104°05'0 0.0
2015-Nov-01 09:17N 01°18' E 104°05'0 0.1
2015-Nov-01 07:29N 01°18' E 104°05'0 0.2
2015-Nov-01 06:10N 01°18' E 104°05'2 2.3
2015-Nov-01 05:23N 01°17' E 104°05'6 7.4
2015-Nov-01 04:32N 01°15' E 103°59'7 6.4
2015-Nov-01 03:29N 01°12' E 103°53'5 5.4
2015-Nov-01 02:33N 01°10' E 103°48'16411.0
2015-Oct-31 11:34N 02°33' E 101°27'1312.0
2015-Oct-31 10:28N 02°39' E 101°15'1011.3
2015-Oct-31 09:33N 02°44' E 101°06'1210.9
2015-Oct-31 08:28N 02°51' E 100°56'1010.9
2015-Oct-31 07:34N 02°58' E 100°49'  

Dump ship's entire track history